createdAt,value
2017-06-02T00:00:25.304Z,52.20
2017-06-02T00:02:52.598Z,53.20
2017-06-02T00:05:19.898Z,52.80
2017-06-02T00:07:47.491Z,52.40
2017-06-02T00:10:14.814Z,53.60
2017-06-02T00:12:42.153Z,53.50
2017-06-02T00:15:09.501Z,52.20
2017-06-02T00:17:36.777Z,53.20
2017-06-02T00:20:04.041Z,52.90
2017-06-02T00:22:31.009Z,52.90
2017-06-02T00:24:58.302Z,53.60
2017-06-02T00:27:25.585Z,52.90
2017-06-02T00:29:53.038Z,53.50
2017-06-02T00:32:20.319Z,54.20
2017-06-02T00:34:47.660Z,54.30
2017-06-02T00:37:14.947Z,53.90
2017-06-02T00:39:42.277Z,53.90
2017-06-02T00:42:09.604Z,53.90
2017-06-02T00:44:36.876Z,53.40
2017-06-02T00:47:04.620Z,53.90
2017-06-02T00:49:31.962Z,54.00
2017-06-02T00:51:59.277Z,53.70
2017-06-02T00:54:26.545Z,54.00
2017-06-02T00:56:53.845Z,54.70
2017-06-02T00:59:21.112Z,54.40
2017-06-02T01:01:48.448Z,54.30
2017-06-02T01:04:15.765Z,54.50
2017-06-02T01:06:43.078Z,54.60
2017-06-02T01:09:10.680Z,55.00
2017-06-02T01:11:37.999Z,55.50
2017-06-02T01:14:05.348Z,55.30
2017-06-02T01:16:32.673Z,55.50
2017-06-02T01:18:59.960Z,55.20
2017-06-02T01:21:27.278Z,55.60
2017-06-02T01:23:54.678Z,55.20
2017-06-02T01:26:21.224Z,55.20
2017-06-02T01:28:48.561Z,54.80
2017-06-02T01:31:15.880Z,55.70
2017-06-02T01:33:43.248Z,55.90
2017-06-02T01:36:10.544Z,56.00
2017-06-02T01:38:37.756Z,55.70
2017-06-02T01:41:05.125Z,55.80
2017-06-02T01:43:32.512Z,57.40
2017-06-02T01:45:59.917Z,55.30
2017-06-02T01:48:27.133Z,56.00
2017-06-02T01:50:54.381Z,55.50
2017-06-02T01:53:21.705Z,56.40
2017-06-02T01:55:49.285Z,56.60
2017-06-02T01:58:16.588Z,55.00
2017-06-02T02:00:43.896Z,54.00
2017-06-02T02:03:11.204Z,54.30
2017-06-02T02:05:38.606Z,53.30
2017-06-02T02:08:05.942Z,53.30
2017-06-02T02:10:33.245Z,53.50
2017-06-02T02:13:00.536Z,53.80
2017-06-02T02:15:27.869Z,53.70
2017-06-02T02:17:55.117Z,53.00
2017-06-02T02:20:22.412Z,52.50
2017-06-02T02:22:49.616Z,53.10
2017-06-02T02:25:16.950Z,52.70
2017-06-02T02:27:44.305Z,53.60
2017-06-02T02:30:11.628Z,52.20
2017-06-02T02:32:38.893Z,53.40
2017-06-02T02:35:06.821Z,53.30
2017-06-02T02:37:34.255Z,54.40
2017-06-02T02:40:01.557Z,54.30
2017-06-02T02:42:28.872Z,54.00
2017-06-02T02:44:56.248Z,54.20
2017-06-02T02:47:23.590Z,53.20
2017-06-02T02:49:50.876Z,53.80
2017-06-02T02:52:18.188Z,53.60
2017-06-02T02:54:45.489Z,53.70
2017-06-02T02:57:12.795Z,54.50
2017-06-02T02:59:40.151Z,54.50
2017-06-02T03:02:07.544Z,55.50
2017-06-02T03:04:34.858Z,54.70
2017-06-02T03:07:02.184Z,54.40
2017-06-02T03:09:29.529Z,54.60
2017-06-02T03:11:56.865Z,54.10
2017-06-02T03:14:24.207Z,54.90
2017-06-02T03:16:51.948Z,55.20
2017-06-02T03:19:19.253Z,55.60
2017-06-02T03:21:46.577Z,54.50
2017-06-02T03:24:13.893Z,55.30
2017-06-02T03:26:41.318Z,55.20
2017-06-02T03:29:08.645Z,55.10
2017-06-02T03:31:35.964Z,56.70
2017-06-02T03:34:03.248Z,55.90
2017-06-02T03:36:30.552Z,56.60
2017-06-02T03:38:57.793Z,56.30
2017-06-02T03:41:25.093Z,55.40
2017-06-02T03:43:52.400Z,55.90
2017-06-02T03:46:19.704Z,55.60
2017-06-02T03:48:46.882Z,56.00
2017-06-02T03:51:14.218Z,56.20
2017-06-02T03:53:41.577Z,56.80
2017-06-02T03:56:08.757Z,56.30
2017-06-02T03:58:36.086Z,58.00
2017-06-02T04:01:03.772Z,56.80
2017-06-02T04:03:31.156Z,56.20
2017-06-02T04:05:58.473Z,56.60
2017-06-02T04:08:25.897Z,57.70
2017-06-02T04:10:53.225Z,57.10
2017-06-02T04:13:20.531Z,57.20
2017-06-02T04:15:47.739Z,57.00
2017-06-02T04:18:15.088Z,56.90
2017-06-02T04:20:42.381Z,56.90
2017-06-02T04:23:09.819Z,56.90
2017-06-02T04:25:37.198Z,57.10
2017-06-02T04:28:04.492Z,57.30
2017-06-02T04:30:31.799Z,56.90
2017-06-02T04:32:59.272Z,56.40
2017-06-02T04:35:26.589Z,57.20
2017-06-02T04:37:53.949Z,57.30
2017-06-02T04:40:21.256Z,57.80
2017-06-02T04:42:48.465Z,57.60
2017-06-02T04:45:15.660Z,57.10
2017-06-02T04:47:42.996Z,57.10
2017-06-02T04:50:10.212Z,56.00
2017-06-02T04:52:37.677Z,55.10
2017-06-02T04:55:04.906Z,56.90
2017-06-02T04:57:32.244Z,54.40
2017-06-02T04:59:59.633Z,53.70
2017-06-02T05:02:26.959Z,54.30
2017-06-02T05:04:54.244Z,55.60
2017-06-02T05:07:21.552Z,53.10
2017-06-02T05:09:49.207Z,55.10
2017-06-02T05:12:16.494Z,56.10
2017-06-02T05:14:43.796Z,53.70
2017-06-02T05:17:11.008Z,54.60
2017-06-02T05:19:38.377Z,54.30
2017-06-02T05:22:05.676Z,53.50
2017-06-02T05:24:33.553Z,53.80
2017-06-02T05:27:01.333Z,52.00
2017-06-02T05:29:28.696Z,51.90
2017-06-02T05:31:56.431Z,52.90
2017-06-02T05:34:38.688Z,54.10
2017-06-02T05:37:05.968Z,51.80
2017-06-02T05:39:40.220Z,52.90
2017-06-02T05:42:06.657Z,52.80
2017-06-02T05:44:33.944Z,51.10
2017-06-02T05:47:01.264Z,52.20
2017-06-02T05:49:28.612Z,50.80
2017-06-02T05:51:55.961Z,50.90
2017-06-02T05:54:23.265Z,51.00
2017-06-02T05:56:50.735Z,50.00
2017-06-02T05:59:18.024Z,49.00
2017-06-02T06:01:45.392Z,49.90
2017-06-02T06:04:12.888Z,48.90
2017-06-02T06:06:40.243Z,49.10
2017-06-02T06:09:07.532Z,48.20
2017-06-02T06:11:35.138Z,48.10
2017-06-02T06:14:02.450Z,48.30
2017-06-02T06:16:29.617Z,48.30
2017-06-02T06:18:58.013Z,46.80
2017-06-02T06:21:25.600Z,47.60
2017-06-02T06:23:52.941Z,48.20
2017-06-02T06:26:20.093Z,46.40
2017-06-02T06:28:47.436Z,44.30
2017-06-02T06:31:14.720Z,44.00
2017-06-02T06:33:42.454Z,44.50
2017-06-02T06:36:09.906Z,43.00
2017-06-02T06:38:37.280Z,43.70
2017-06-02T06:41:04.677Z,44.50
2017-06-02T06:43:32.290Z,42.80
2017-06-02T06:45:59.545Z,43.60
2017-06-02T06:48:26.776Z,43.70
2017-06-02T06:51:09.078Z,43.60
2017-06-02T06:53:36.393Z,41.10
2017-06-02T06:56:03.821Z,39.40
2017-06-02T06:58:31.152Z,40.70
2017-06-02T07:00:58.496Z,39.50
2017-06-02T07:03:25.886Z,39.40
2017-06-02T07:05:53.093Z,38.70
2017-06-02T07:08:20.493Z,38.30
2017-06-02T07:10:47.800Z,37.90
2017-06-02T07:13:15.136Z,36.80
2017-06-02T07:15:43.136Z,36.50
2017-06-02T07:18:10.488Z,37.00
2017-06-02T07:20:37.813Z,38.10
2017-06-02T07:23:05.166Z,37.90
2017-06-02T07:25:34.969Z,37.10
2017-06-02T07:28:02.281Z,37.90
2017-06-02T07:30:29.617Z,35.60
2017-06-02T07:32:56.950Z,36.60
2017-06-02T07:35:24.279Z,38.00
2017-06-02T07:37:51.569Z,36.60
2017-06-02T07:40:19.444Z,35.00
2017-06-02T07:42:46.779Z,33.50
2017-06-02T07:45:14.087Z,34.60
2017-06-02T07:47:41.505Z,32.10
2017-06-02T07:50:08.834Z,32.50
2017-06-02T07:52:42.756Z,33.20
2017-06-02T07:55:10.088Z,31.90
2017-06-02T07:57:37.415Z,32.90
2017-06-02T08:00:04.713Z,32.80
2017-06-02T08:02:31.900Z,32.50
2017-06-02T08:04:59.236Z,33.30
2017-06-02T08:07:27.933Z,32.10
2017-06-02T08:09:55.233Z,33.20
2017-06-02T08:12:22.578Z,31.10
2017-06-02T08:14:49.876Z,30.00
2017-06-02T08:17:17.188Z,30.10
2017-06-02T08:19:44.473Z,27.50
2017-06-02T08:22:11.787Z,28.00
2017-06-02T08:24:39.077Z,26.60
2017-06-02T08:27:06.391Z,25.50
2017-06-02T08:29:33.705Z,25.00
2017-06-02T08:32:01.050Z,25.50
2017-06-02T08:34:28.365Z,24.90
2017-06-02T08:36:55.675Z,24.00
2017-06-02T08:39:23.008Z,23.90
2017-06-02T08:41:50.313Z,23.80
2017-06-02T08:44:17.550Z,24.20
2017-06-02T08:46:44.865Z,24.10
2017-06-02T08:49:16.970Z,22.00
2017-06-02T08:51:44.257Z,23.10
2017-06-02T08:54:11.592Z,23.90
2017-06-02T08:56:38.908Z,25.60
2017-06-02T08:59:06.104Z,25.90
2017-06-02T09:01:38.312Z,25.10
2017-06-02T09:04:05.605Z,26.30
2017-06-02T09:06:32.846Z,28.30
2017-06-02T09:09:00.163Z,29.00
2017-06-02T09:11:27.498Z,30.00
2017-06-02T09:13:54.816Z,29.60
2017-06-02T09:16:28.206Z,29.40
2017-06-02T09:18:55.557Z,29.90
2017-06-02T09:21:22.833Z,30.20
2017-06-02T09:23:50.059Z,28.90
2017-06-02T09:26:17.330Z,30.90
2017-06-02T09:28:44.660Z,29.10
2017-06-02T09:31:17.109Z,31.90
2017-06-02T09:33:44.455Z,29.60
2017-06-02T09:36:11.912Z,30.60
2017-06-02T09:38:39.101Z,30.20
2017-06-02T09:41:06.389Z,29.60
2017-06-02T09:43:33.710Z,29.60
2017-06-02T09:46:02.421Z,29.70
2017-06-02T09:48:29.729Z,32.40
2017-06-02T09:50:56.940Z,30.10
2017-06-02T09:53:24.486Z,29.40
2017-06-02T09:55:51.844Z,31.60
2017-06-02T09:58:19.141Z,29.20
2017-06-02T10:00:49.760Z,29.20
2017-06-02T10:03:17.060Z,31.80
2017-06-02T10:05:44.285Z,31.00
2017-06-02T10:08:11.577Z,31.70
2017-06-02T10:10:38.856Z,30.00
2017-06-02T10:13:06.157Z,33.00
2017-06-02T10:15:33.456Z,29.20
2017-06-02T10:18:04.213Z,29.50
2017-06-02T10:20:31.500Z,30.60
2017-06-02T10:22:58.820Z,29.40
2017-06-02T10:25:26.116Z,29.40
2017-06-02T10:27:53.428Z,29.60
2017-06-02T10:30:20.774Z,30.00
2017-06-02T10:32:48.111Z,29.80
2017-06-02T10:35:15.418Z,30.50
2017-06-02T10:37:50.872Z,32.90
2017-06-02T10:40:18.224Z,29.90
2017-06-02T10:42:45.496Z,30.10
2017-06-02T10:45:12.757Z,30.90
2017-06-02T10:47:40.096Z,31.70
2017-06-02T10:50:11.228Z,29.50
2017-06-02T10:52:38.545Z,30.10
2017-06-02T10:55:05.798Z,29.50
2017-06-02T10:57:33.167Z,29.60
2017-06-02T11:00:00.476Z,34.40
2017-06-02T11:02:27.752Z,29.20
2017-06-02T11:04:55.076Z,30.90
2017-06-02T11:07:25.621Z,30.80
2017-06-02T11:09:52.923Z,32.30
2017-06-02T11:14:53.853Z,30.40
2017-06-02T11:17:28.978Z,32.70
2017-06-02T11:19:57.657Z,29.10
2017-06-02T11:22:24.980Z,30.00
2017-06-02T11:24:52.208Z,30.10
2017-06-02T11:27:19.497Z,30.50
2017-06-02T11:29:46.809Z,30.60
2017-06-02T11:32:14.140Z,33.00
2017-06-02T11:34:41.413Z,30.50
2017-06-02T11:37:15.165Z,31.10
2017-06-02T11:39:42.464Z,29.70
2017-06-02T11:42:09.764Z,32.60
2017-06-02T11:44:37.077Z,29.50
2017-06-02T11:47:04.370Z,30.00
2017-06-02T11:49:35.845Z,28.80
2017-06-02T11:52:03.193Z,28.80
2017-06-02T11:54:30.544Z,30.10
2017-06-02T11:56:57.856Z,29.60
2017-06-02T11:59:25.302Z,30.40
2017-06-02T12:01:52.551Z,30.20
2017-06-02T12:04:19.841Z,30.10
2017-06-02T12:06:48.487Z,30.00
2017-06-02T12:09:15.824Z,29.80
2017-06-02T12:11:43.292Z,30.50
2017-06-02T12:14:10.593Z,30.00
2017-06-02T12:16:37.831Z,32.40
2017-06-02T12:19:10.498Z,31.20
2017-06-02T12:21:37.027Z,31.10
2017-06-02T12:24:04.369Z,30.40
2017-06-02T12:26:31.660Z,29.80
2017-06-02T12:28:58.248Z,29.80
2017-06-02T12:31:25.563Z,30.60
2017-06-02T12:33:54.212Z,32.50
2017-06-02T12:36:21.574Z,31.90
2017-06-02T12:38:48.925Z,30.60
2017-06-02T12:41:16.221Z,30.20
2017-06-02T12:43:43.615Z,30.00
2017-06-02T12:46:10.932Z,32.40
2017-06-02T12:48:42.040Z,32.20
2017-06-02T12:51:09.362Z,30.50
2017-06-02T12:53:36.696Z,34.20
2017-06-02T12:56:03.995Z,30.00
2017-06-02T12:58:31.272Z,31.80
2017-06-02T13:00:58.604Z,29.90
2017-06-02T13:03:25.955Z,30.30
2017-06-02T13:05:53.236Z,30.50
2017-06-02T13:08:20.516Z,32.90
2017-06-02T13:10:54.716Z,31.80
2017-06-02T13:13:22.041Z,30.80
2017-06-02T13:15:52.413Z,30.00
2017-06-02T13:18:28.014Z,31.20
2017-06-02T13:20:58.572Z,29.70
2017-06-02T13:23:25.859Z,28.60
2017-06-02T13:25:53.213Z,28.90
2017-06-02T13:28:20.520Z,30.10
2017-06-02T13:30:47.736Z,29.30
2017-06-02T13:33:15.052Z,29.90
2017-06-02T13:35:42.440Z,29.60
2017-06-02T13:38:09.724Z,30.70
2017-06-02T13:40:37.016Z,31.70
2017-06-02T13:43:07.172Z,31.60
2017-06-02T13:45:34.479Z,29.70
2017-06-02T13:48:01.752Z,31.00
2017-06-02T13:50:29.064Z,30.10
2017-06-02T13:52:56.370Z,31.70
2017-06-02T13:55:23.729Z,32.60
2017-06-02T13:57:51.104Z,29.90
2017-06-02T14:00:18.436Z,30.90
2017-06-02T14:02:45.756Z,30.60
2017-06-02T14:05:13.090Z,29.90
2017-06-02T14:07:40.362Z,30.50
2017-06-02T14:10:07.649Z,30.50
2017-06-02T14:12:34.975Z,31.20
2017-06-02T14:15:02.288Z,31.70
2017-06-02T14:17:29.628Z,30.00
2017-06-02T14:19:56.979Z,30.10
2017-06-02T14:22:24.298Z,30.00
2017-06-02T14:24:51.601Z,31.00
2017-06-02T14:27:19.024Z,29.40
2017-06-02T14:29:45.648Z,29.30
2017-06-02T14:32:13.053Z,31.10
2017-06-02T14:34:40.304Z,29.80
2017-06-02T14:37:07.477Z,29.60
2017-06-02T14:39:34.836Z,29.80
2017-06-02T14:42:02.041Z,32.30
2017-06-02T14:44:29.376Z,30.50
2017-06-02T14:46:56.732Z,29.70
2017-06-02T14:49:24.062Z,30.50
2017-06-02T14:51:51.381Z,29.00
2017-06-02T14:54:18.818Z,29.20
2017-06-02T14:56:46.120Z,28.70
2017-06-02T14:59:13.766Z,30.00
2017-06-02T15:01:41.384Z,30.50
2017-06-02T15:04:08.792Z,30.40
2017-06-02T15:06:36.156Z,29.80
2017-06-02T15:09:03.877Z,30.30
2017-06-02T15:11:31.211Z,31.20
2017-06-02T15:13:58.478Z,30.80
2017-06-02T15:16:25.780Z,30.50
2017-06-02T15:18:53.014Z,31.70
2017-06-02T15:21:20.764Z,32.60
2017-06-02T15:23:47.959Z,30.00
2017-06-02T15:26:15.296Z,30.90
2017-06-02T15:28:41.933Z,30.90
2017-06-02T15:31:09.314Z,30.60
2017-06-02T15:33:36.519Z,30.90
2017-06-02T15:36:03.848Z,30.20
2017-06-02T15:38:31.189Z,32.90
2017-06-02T15:40:58.528Z,32.40
2017-06-02T15:43:25.744Z,31.90
2017-06-02T15:45:53.239Z,31.90
2017-06-02T15:48:20.609Z,30.30
2017-06-02T15:50:47.916Z,31.80
2017-06-02T15:53:15.239Z,31.70
2017-06-02T15:55:42.633Z,31.90
2017-06-02T15:58:09.969Z,29.90
2017-06-02T16:00:36.545Z,29.90
2017-06-02T16:03:03.912Z,31.90
2017-06-02T16:05:31.133Z,31.10
2017-06-02T16:07:58.472Z,31.10
2017-06-02T16:10:25.798Z,30.80
2017-06-02T16:12:53.316Z,31.00
2017-06-02T16:15:20.736Z,31.90
2017-06-02T16:17:48.084Z,32.10
2017-06-02T16:20:15.375Z,30.90
2017-06-02T16:22:42.700Z,31.10
2017-06-02T16:25:10.036Z,32.20
2017-06-02T16:27:37.209Z,30.50
2017-06-02T16:30:04.840Z,30.60
2017-06-02T16:32:32.149Z,31.20
2017-06-02T16:34:59.401Z,30.70
2017-06-02T16:37:26.737Z,30.60
2017-06-02T16:39:54.076Z,31.00
2017-06-02T16:42:21.412Z,31.10
2017-06-02T16:44:48.738Z,30.90
2017-06-02T16:47:16.124Z,32.90
2017-06-02T16:49:43.691Z,33.30
2017-06-02T16:52:11.377Z,31.20
2017-06-02T16:54:38.678Z,32.00
2017-06-02T16:57:06.008Z,33.50
2017-06-02T16:59:33.324Z,32.30
2017-06-02T17:02:00.656Z,32.30
2017-06-02T17:04:27.980Z,32.60
2017-06-02T17:06:56.975Z,32.00
2017-06-02T17:09:26.300Z,31.90
2017-06-02T17:11:53.684Z,31.90
2017-06-02T17:14:20.984Z,32.00
2017-06-02T17:16:48.329Z,32.60
2017-06-02T17:19:15.552Z,32.30
2017-06-02T17:21:43.008Z,32.00
2017-06-02T17:24:10.330Z,33.00
2017-06-02T17:26:40.064Z,33.00
2017-06-02T17:29:07.416Z,33.00
2017-06-02T17:31:34.728Z,33.10
2017-06-02T17:34:01.969Z,33.00
2017-06-02T17:36:29.265Z,32.90
2017-06-02T17:38:56.584Z,32.90
2017-06-02T17:41:25.624Z,32.90
2017-06-02T17:43:52.889Z,32.90
2017-06-02T17:46:20.218Z,32.90
2017-06-02T17:48:47.568Z,33.30
2017-06-02T17:51:14.881Z,32.80
2017-06-02T17:56:14.716Z,35.70
2017-06-02T17:58:42.234Z,32.80
2017-06-02T18:01:09.584Z,33.70
2017-06-02T18:03:36.903Z,32.80
2017-06-02T18:06:08.248Z,34.10
2017-06-02T18:08:35.597Z,33.00
2017-06-02T18:11:02.913Z,34.50
2017-06-02T18:13:30.259Z,35.30
2017-06-02T18:15:57.517Z,33.80
2017-06-02T18:18:24.847Z,35.10
2017-06-02T18:20:52.213Z,34.80
2017-06-02T18:23:19.557Z,33.70
2017-06-02T18:25:47.159Z,35.10
2017-06-02T18:28:14.495Z,36.80
2017-06-02T18:30:41.953Z,37.90
2017-06-02T18:33:09.299Z,37.60
2017-06-02T18:35:36.620Z,38.90
2017-06-02T18:38:10.900Z,39.60
2017-06-02T18:40:38.204Z,39.80
2017-06-02T18:43:05.541Z,40.70
2017-06-02T18:45:32.864Z,41.50
2017-06-02T18:48:00.188Z,42.90
2017-06-02T18:50:27.489Z,43.50
2017-06-02T18:52:58.732Z,43.40
2017-06-02T18:55:25.932Z,43.50
2017-06-02T18:57:53.320Z,43.90
2017-06-02T19:00:20.592Z,46.00
2017-06-02T19:02:47.920Z,47.40
2017-06-02T19:05:15.248Z,48.10
2017-06-02T19:07:42.629Z,48.70
2017-06-02T19:10:10.030Z,48.60
2017-06-02T19:12:37.600Z,49.40
2017-06-02T19:15:05.357Z,49.70
2017-06-02T19:17:32.656Z,50.10
2017-06-02T19:19:59.960Z,49.70
2017-06-02T19:22:27.260Z,50.90
2017-06-02T19:24:54.600Z,51.80
2017-06-02T19:27:21.972Z,51.90
2017-06-02T19:29:49.616Z,51.40
2017-06-02T19:32:16.867Z,53.00
2017-06-02T19:34:44.263Z,54.00
2017-06-02T19:37:11.776Z,54.10
2017-06-02T19:39:39.076Z,54.20
2017-06-02T19:42:06.451Z,54.10
2017-06-02T19:44:33.784Z,53.90
2017-06-02T19:47:01.225Z,55.30
2017-06-02T19:49:28.577Z,55.00
2017-06-02T19:51:55.892Z,56.30
2017-06-02T19:54:23.296Z,57.40
2017-06-02T19:56:50.647Z,57.50
2017-06-02T19:59:17.854Z,57.30
2017-06-02T20:01:45.225Z,58.20
2017-06-02T20:04:12.468Z,58.00
2017-06-02T20:06:39.648Z,58.30
2017-06-02T20:09:07.104Z,58.80
2017-06-02T20:11:34.407Z,59.20
2017-06-02T20:14:01.769Z,60.00
2017-06-02T20:16:29.052Z,59.60
2017-06-02T20:18:56.368Z,60.50
2017-06-02T20:21:23.836Z,60.70
2017-06-02T20:23:51.180Z,61.30
2017-06-02T20:26:18.475Z,61.70
2017-06-02T20:28:45.062Z,61.00
2017-06-02T20:31:12.694Z,61.10
2017-06-02T20:33:39.944Z,61.20
2017-06-02T20:36:07.260Z,62.20
2017-06-02T20:38:34.620Z,61.60
2017-06-02T20:41:01.909Z,61.60
2017-06-02T20:43:29.228Z,61.90
2017-06-02T20:45:56.989Z,61.80
2017-06-02T20:48:24.299Z,60.90
2017-06-02T20:50:51.520Z,61.60
2017-06-02T20:53:18.818Z,61.60
2017-06-02T20:55:46.110Z,61.90
2017-06-02T20:58:13.314Z,61.40
2017-06-02T21:00:47.620Z,61.80
2017-06-02T21:03:14.142Z,61.80
2017-06-02T21:05:41.467Z,61.90
2017-06-02T21:08:08.824Z,61.80
2017-06-02T21:10:36.123Z,61.70
2017-06-02T21:13:03.473Z,62.40
2017-06-02T21:15:30.714Z,62.40
2017-06-02T21:17:58.032Z,61.90
2017-06-02T21:20:25.489Z,62.20
2017-06-02T21:22:52.836Z,61.80
2017-06-02T21:25:20.173Z,62.30
2017-06-02T21:27:47.425Z,62.50
2017-06-02T21:30:15.012Z,62.40
2017-06-02T21:32:42.555Z,62.80
2017-06-02T21:35:09.867Z,63.10
2017-06-02T21:37:37.204Z,62.50
2017-06-02T21:40:04.624Z,62.50
2017-06-02T21:42:32.237Z,62.30
2017-06-02T21:44:59.561Z,62.40
2017-06-02T21:47:26.885Z,62.50
2017-06-02T21:49:54.342Z,62.40
2017-06-02T21:52:21.654Z,63.00
2017-06-02T21:54:48.964Z,63.00
2017-06-02T21:57:16.277Z,63.00
2017-06-02T21:59:43.548Z,63.60
2017-06-02T22:02:10.869Z,63.00
2017-06-02T22:04:38.076Z,63.20
2017-06-02T22:07:05.388Z,63.20
2017-06-02T22:09:32.611Z,63.00
2017-06-02T22:11:59.925Z,62.90
2017-06-02T22:14:27.333Z,63.10
2017-06-02T22:16:54.624Z,62.20
2017-06-02T22:19:21.925Z,62.20
2017-06-02T22:21:49.241Z,62.10
2017-06-02T22:24:16.636Z,61.40
2017-06-02T22:26:43.942Z,61.30
2017-06-02T22:29:11.497Z,61.60
2017-06-02T22:31:38.793Z,61.60
2017-06-02T22:34:06.100Z,61.80
2017-06-02T22:36:33.348Z,62.30
2017-06-02T22:39:00.641Z,61.80
2017-06-02T22:41:27.948Z,62.10
2017-06-02T22:43:55.259Z,61.40
2017-06-02T22:46:22.415Z,61.60
2017-06-02T22:48:49.471Z,61.90
2017-06-02T22:51:16.560Z,61.60
2017-06-02T22:53:43.616Z,61.80
2017-06-02T22:56:10.675Z,61.70
2017-06-02T22:58:37.736Z,61.50
2017-06-02T23:01:04.810Z,60.90
2017-06-02T23:03:31.876Z,61.20
2017-06-02T23:05:58.977Z,61.80
2017-06-02T23:08:26.084Z,62.10
2017-06-02T23:10:53.151Z,62.40
2017-06-02T23:13:20.252Z,62.10
2017-06-02T23:15:47.338Z,61.10
2017-06-02T23:18:21.380Z,60.90
2017-06-02T23:20:48.470Z,61.20
2017-06-02T23:23:15.543Z,62.00
2017-06-02T23:25:42.713Z,62.40
2017-06-02T23:28:10.485Z,62.60
2017-06-02T23:30:37.628Z,62.60
2017-06-02T23:33:04.687Z,62.70
2017-06-02T23:35:31.751Z,62.70
2017-06-02T23:37:58.816Z,62.60
2017-06-02T23:40:25.925Z,62.70
2017-06-02T23:42:53.004Z,62.80
2017-06-02T23:45:20.091Z,62.70
2017-06-02T23:47:47.152Z,62.70
2017-06-02T23:50:14.217Z,62.60
2017-06-02T23:52:41.332Z,63.30
2017-06-02T23:55:08.411Z,63.60
2017-06-02T23:57:35.560Z,63.60
